Lake Worth, FL

11:04 PM EDT on May 27, 2015 (GMT -0400)
Venetian Isles | | Change Station
CLOSE
Current Station
Personal Weather Station
Location: Boynton Beach, FL
Elevation: 20 ft
Nearby Weather Stations

Elev 20 ft 26.55 °N, 80.18 °W | Updated 4 minutes ago

Mostly Cloudy
Mostly Cloudy
75.7 °F
Feels Like 77 °F
N
2.0
Wind Variable Wind from ENE
Gusts 11.0 mph

Today
High -- | Low -- °F
--% Chance of Precip.
Yesterday
High -- | Low -- °F
Precip. -- in
6:28 AM 8:07 PM
Waxing Gibbous, 72% visible
Pressure 30.14 in
Visibility 10.0 miles
Clouds Few 3400 ft
Scattered Clouds 7000 ft
Heat Index 77 °F
Dew Point 68 °F
Humidity 76%
Rainfall 0.00 in
Snow Depth Not available.
UV 0 out of 12
Pollen 5.30 out of 12
Air Quality Not available.
Flu Activity Sporadic
METAR KPBI 280253Z 06011KT 10SM FEW034 SCT070 27/17 A3014 RMK AO2 SLP205 T02670172 51012 $

More Conditions Fewer Conditions

Pressure 30.14 in
Visibility 10.0 miles
Clouds Few 3400 ft
Scattered Clouds 7000 ft
Heat Index 77 °F
Dew Point 68 °F
Humidity 76%
Rainfall 0.00 in
Snow Depth Not available.
UV 0 out of 12
Pollen 5.30 out of 12
Air Quality Not available.
Flu Activity Sporadic
METAR KPBI 280253Z 06011KT 10SM FEW034 SCT070 27/17 A3014 RMK AO2 SLP205 T02670172 51012 $

More Conditions Fewer Conditions

10-Day Weather Forecast

Almanac

Astronomy

May. 27, 2015 Rise Set
Actual Time
Civil Twilight
Nautical Twilight
Astronomical Twilight
Moon
Length of Visible Light
Length of Day
Tomorrow will be .
, % of the Moon is Illuminated

Today's Extremes

State Highs State Lows

Community

WunderPhotos

Upload Photos

1,824,878 photos uploaded!

WunderBlogs® & News

Nearby

Air Quality

  Air Quality AQ Index Pollutant
Not available.

Snow Depth

Station Depth Elevation

Earthquake Activity

City Distance Mag. Time & Date
Minimum magnitude displayed is 2.5.

Coastal Water Temperatures

Place Temperature

Stations

Nearby Weather Stations

Station Location Temp. Windchill Dew Point Humidity Wind Precip. Elev Updated Type